Beryl, UT (84714)

11:33 PM MST on February 10, 2016 (GMT -0700)
Veyo - 18Miles NW of St. George Utah at 4500 Ft. | | Change Station
CLOSE
Current Station
Personal Weather Station
Location: Veyo, UT
Elevation: 4564 ft
Nearby Weather Stations

Elev 4564 ft 37.35 °N, 113.70 °W | Updated 3 minutes ago

Partly Cloudy
Partly Cloudy
43.1 °F
Feels Like 43 °F
N
3.0
Wind Variable Wind from NNE
Gusts 3.0 mph

Today
High -- | Low -- °F
--% Chance of Precip.
Yesterday
High -- | Low -- °F
Precip. -- in
Pressure 30.46 in
Visibility 9.0 miles
Clouds Clear
Windchill 43 °F
Dew Point 23 °F
Humidity 45%
Rainfall 0.00 in
Snow Depth Not available.
7:30 AM 6:07 PM
Waxing Crescent, 10% visible
METAR KCDC 110553Z AUTO 08005KT 9SM CLR M05/M07 A3039 RMK AO2 SLP314 T10501067 10072 21056 51006
Pressure 30.46 in
Visibility 9.0 miles
Clouds Clear
Windchill 43 °F
Dew Point 23 °F
Humidity 45%
Rainfall 0.00 in
Snow Depth Not available.
7:30 AM 6:07 PM
Waxing Crescent, 10% visible
METAR KCDC 110553Z AUTO 08005KT 9SM CLR M05/M07 A3039 RMK AO2 SLP314 T10501067 10072 21056 51006

10-Day Weather Forecast

Almanac

Astronomy

Feb. 10, 2016 Rise Set
Actual Time
Civil Twilight
Nautical Twilight
Astronomical Twilight
Moon
Length of Visible Light
Length of Day
Tomorrow will be .
, % of the Moon is Illuminated

Today's Extremes

State Highs State Lows

Community

WunderPhotos

Upload Photos

1,892,028 photos uploaded!

WunderBlog® & News

Nearby

Air Quality

  Air Quality AQ Index Pollutant
Not available.

Snow Depth

Station Depth Elevation

Earthquake Activity

City Distance Mag. Time & Date
Minimum magnitude displayed is 2.5.

Coastal Water Temperatures

Place Temperature

Stations

Nearby Weather Stations

Station Location Temp. Windchill Dew Point Humidity Wind Precip. Elev Updated Type
                   

Watches & Warnings

There are currently no watches in effect.